createdAt,value
2023-04-02T00:01:47.795Z,2.20
2023-04-02T00:04:24.428Z,2.30
2023-04-02T00:06:56.132Z,1.45
2023-04-02T00:09:33.119Z,1.17
2023-04-02T00:12:15.948Z,1.10
2023-04-02T00:14:51.970Z,1.13
2023-04-02T00:17:21.781Z,1.33
2023-04-02T00:20:02.315Z,1.67
2023-04-02T00:22:32.393Z,1.85
2023-04-02T00:25:04.198Z,1.52
2023-04-02T00:27:32.434Z,1.40
2023-04-02T00:30:00.311Z,1.52
2023-04-02T00:32:36.048Z,1.40
2023-04-02T00:35:04.821Z,1.52
2023-04-02T00:37:39.048Z,1.67
2023-04-02T00:40:25.652Z,1.30
2023-04-02T00:42:55.892Z,1.23
2023-04-02T00:45:25.066Z,2.45
2023-04-02T00:47:53.218Z,1.75
2023-04-02T00:50:34.149Z,1.50
2023-04-02T00:53:09.722Z,1.70
2023-04-02T00:55:40.399Z,1.98
2023-04-02T00:58:35.613Z,1.73
2023-04-02T01:01:04.556Z,1.90
2023-04-02T01:03:37.293Z,1.48
2023-04-02T01:06:11.038Z,2.03
2023-04-02T01:09:04.174Z,1.90
2023-04-02T01:11:53.930Z,2.10
2023-04-02T01:14:55.337Z,2.90
2023-04-02T01:17:32.496Z,2.47
2023-04-02T01:23:02.519Z,2.08
2023-04-02T01:25:40.497Z,2.80
2023-04-02T01:28:15.399Z,2.65
2023-04-02T01:30:48.755Z,2.70
2023-04-02T01:33:16.303Z,2.67
2023-04-02T01:35:51.078Z,2.30
2023-04-02T01:38:27.382Z,3.00
2023-04-02T01:41:13.868Z,4.03
2023-04-02T01:43:49.526Z,3.17
2023-04-02T01:46:32.289Z,3.03
2023-04-02T01:49:27.216Z,3.33
2023-04-02T01:51:58.597Z,3.35
2023-04-02T01:54:29.941Z,3.10
2023-04-02T01:56:57.640Z,3.33
2023-04-02T01:59:26.527Z,3.20
2023-04-02T02:02:04.151Z,3.55
2023-04-02T02:04:34.395Z,3.30
2023-04-02T02:07:02.737Z,3.40
2023-04-02T02:09:35.608Z,3.35
2023-04-02T02:12:04.330Z,4.03
2023-04-02T02:14:32.509Z,4.05
2023-04-02T02:17:02.401Z,3.80
2023-04-02T02:19:38.461Z,5.57
2023-04-02T02:22:08.908Z,3.67
2023-04-02T02:24:37.157Z,4.72
2023-04-02T02:27:22.665Z,3.30
2023-04-02T02:30:22.335Z,3.45
2023-04-02T02:33:16.483Z,3.78
2023-04-02T02:36:07.969Z,3.78
2023-04-02T02:38:39.074Z,4.90
2023-04-02T02:41:28.296Z,4.35
2023-04-02T02:44:09.613Z,4.32
2023-04-02T02:46:43.202Z,4.28
2023-04-02T02:49:26.882Z,3.90
2023-04-02T02:52:20.701Z,6.50
2023-04-02T02:55:01.320Z,4.68
2023-04-02T02:57:43.986Z,4.20
2023-04-02T03:00:12.986Z,6.80
2023-04-02T03:02:42.052Z,4.25
2023-04-02T03:05:19.141Z,5.30
2023-04-02T03:07:47.730Z,4.97
2023-04-02T03:10:15.417Z,4.30
2023-04-02T03:12:58.327Z,5.78
2023-04-02T03:15:51.987Z,5.07
2023-04-02T03:18:32.031Z,5.65
2023-04-02T03:21:02.860Z,6.22
2023-04-02T03:23:36.320Z,6.15
2023-04-02T03:26:19.350Z,5.05
2023-04-02T03:28:55.552Z,5.45
2023-04-02T03:31:32.278Z,6.25
2023-04-02T03:34:25.724Z,5.65
2023-04-02T03:36:58.497Z,5.28
2023-04-02T03:40:00.935Z,5.47
2023-04-02T03:42:40.774Z,4.70
2023-04-02T03:45:17.130Z,5.45
2023-04-02T03:47:53.010Z,5.43
2023-04-02T03:50:33.567Z,5.95
2023-04-02T03:53:04.455Z,6.18
2023-04-02T03:55:37.022Z,3.22
2023-04-02T03:58:23.049Z,5.18
2023-04-02T04:01:12.413Z,6.13
2023-04-02T04:03:57.090Z,6.32
2023-04-02T04:06:30.316Z,6.28
2023-04-02T04:09:16.126Z,5.95
2023-04-02T04:11:50.805Z,5.50
2023-04-02T04:14:24.044Z,5.25
2023-04-02T04:16:56.507Z,7.03
2023-04-02T04:19:45.334Z,5.85
2023-04-02T04:22:20.026Z,6.43
2023-04-02T04:24:51.623Z,6.45
2023-04-02T04:27:52.871Z,4.97
2023-04-02T04:30:42.311Z,5.00
2023-04-02T04:33:25.572Z,5.47
2023-04-02T04:36:00.275Z,7.25
2023-04-02T04:38:39.615Z,5.90
2023-04-02T04:41:18.705Z,6.10
2023-04-02T04:44:05.585Z,5.30
2023-04-02T04:46:44.061Z,5.88
2023-04-02T04:49:18.076Z,5.43
2023-04-02T04:51:51.110Z,4.75
2023-04-02T04:54:20.124Z,5.30
2023-04-02T04:56:55.630Z,4.22
2023-04-02T04:59:28.405Z,5.10
2023-04-02T05:02:19.705Z,5.03
2023-04-02T05:04:52.159Z,4.15
2023-04-02T05:07:35.951Z,4.25
2023-04-02T05:10:40.843Z,3.47
2023-04-02T05:13:36.430Z,4.40
2023-04-02T05:16:31.558Z,3.40
2023-04-02T05:19:11.417Z,3.10
2023-04-02T05:22:00.095Z,3.55
2023-04-02T05:24:43.652Z,3.30
2023-04-02T05:27:33.618Z,3.67
2023-04-02T05:30:28.787Z,2.92
2023-04-02T05:33:14.071Z,2.25
2023-04-02T05:35:44.732Z,2.65
2023-04-02T05:38:23.722Z,2.75
2023-04-02T05:41:13.604Z,2.70
2023-04-02T05:43:48.029Z,3.03
2023-04-02T05:46:29.529Z,3.45
2023-04-02T05:48:59.236Z,2.80
2023-04-02T05:51:43.581Z,2.63
2023-04-02T05:54:27.107Z,2.47
2023-04-02T05:57:04.583Z,3.65
2023-04-02T05:59:39.933Z,2.88
2023-04-02T06:02:33.638Z,2.60
2023-04-02T06:05:17.430Z,2.67
2023-04-02T06:08:07.604Z,1.90
2023-04-02T06:10:48.759Z,2.60
2023-04-02T06:13:19.834Z,2.88
2023-04-02T06:15:47.978Z,2.33
2023-04-02T06:18:27.423Z,3.10
2023-04-02T06:20:55.793Z,4.97
2023-04-02T06:23:59.506Z,2.58
2023-04-02T06:26:44.787Z,4.05
2023-04-02T06:29:28.450Z,2.58
2023-04-02T06:32:00.348Z,2.72
2023-04-02T06:34:30.744Z,2.90
2023-04-02T06:37:42.070Z,4.57
2023-04-02T06:40:28.147Z,2.90
2023-04-02T06:42:59.948Z,2.50
2023-04-02T06:45:42.149Z,3.13
2023-04-02T06:48:19.725Z,3.95
2023-04-02T06:51:05.434Z,3.90
2023-04-02T06:53:39.856Z,2.55
2023-04-02T06:56:29.290Z,3.03
2023-04-02T06:58:56.641Z,2.85
2023-04-02T07:01:29.366Z,2.25
2023-04-02T07:03:58.434Z,2.72
2023-04-02T07:06:34.295Z,3.22
2023-04-02T07:09:04.509Z,3.03
2023-04-02T07:11:34.216Z,2.85
2023-04-02T07:14:04.347Z,2.90
2023-04-02T07:16:34.410Z,2.80
2023-04-02T07:19:04.063Z,2.33
2023-04-02T07:21:33.846Z,2.85
2023-04-02T07:24:01.446Z,2.97
2023-04-02T07:26:28.938Z,2.85
2023-04-02T07:28:56.854Z,3.05
2023-04-02T07:31:27.180Z,2.95
2023-04-02T07:34:00.457Z,3.20
2023-04-02T07:36:30.607Z,2.40
2023-04-02T07:38:58.075Z,2.60
2023-04-02T07:41:26.346Z,3.00
2023-04-02T07:43:53.754Z,2.92
2023-04-02T07:46:21.080Z,3.20
2023-04-02T07:48:48.542Z,3.28
2023-04-02T07:51:19.249Z,3.70
2023-04-02T07:53:50.225Z,3.05
2023-04-02T07:56:20.173Z,3.42
2023-04-02T07:58:47.770Z,3.13
2023-04-02T08:01:24.429Z,2.97
2023-04-02T08:03:56.828Z,3.33
2023-04-02T08:06:25.273Z,2.28
2023-04-02T08:08:52.962Z,3.03
2023-04-02T08:11:20.465Z,2.88
2023-04-02T08:13:47.930Z,4.05
2023-04-02T08:16:15.471Z,2.75
2023-04-02T08:18:42.850Z,2.80
2023-04-02T08:21:11.357Z,4.82
2023-04-02T08:23:38.825Z,3.35
2023-04-02T08:26:06.849Z,2.83
2023-04-02T08:28:35.123Z,3.85
2023-04-02T08:31:04.619Z,2.42
2023-04-02T08:33:32.497Z,3.25
2023-04-02T08:35:59.919Z,3.40
2023-04-02T08:38:27.225Z,3.08
2023-04-02T08:41:01.376Z,3.22
2023-04-02T08:43:29.207Z,3.42
2023-04-02T08:46:18.338Z,3.08
2023-04-02T08:48:55.312Z,2.83
2023-04-02T08:51:28.966Z,2.80
2023-04-02T08:54:02.379Z,3.33
2023-04-02T08:56:37.406Z,3.03
2023-04-02T08:59:21.150Z,2.58
2023-04-02T09:01:54.354Z,2.80
2023-04-02T09:04:24.588Z,3.20
2023-04-02T09:06:55.386Z,3.58
2023-04-02T09:09:23.704Z,4.18
2023-04-02T09:11:51.788Z,3.15
2023-04-02T09:14:24.521Z,2.50
2023-04-02T09:16:56.119Z,4.13
2023-04-02T09:19:30.880Z,3.38
2023-04-02T09:22:17.444Z,4.05
2023-04-02T09:24:45.695Z,4.32
2023-04-02T09:27:22.901Z,4.22
2023-04-02T09:32:37.274Z,2.97
2023-04-02T09:35:26.641Z,3.00
2023-04-02T09:38:20.450Z,2.33
2023-04-02T09:41:00.758Z,3.03
2023-04-02T09:43:36.037Z,3.72
2023-04-02T09:46:23.242Z,2.92
2023-04-02T09:48:55.789Z,3.40
2023-04-02T09:51:35.009Z,4.45
2023-04-02T09:54:02.577Z,2.72
2023-04-02T09:56:38.008Z,2.63
2023-04-02T09:59:18.025Z,3.38
2023-04-02T10:02:01.424Z,3.75
2023-04-02T10:04:44.457Z,3.38
2023-04-02T10:07:34.573Z,3.15
2023-04-02T10:10:17.366Z,3.95
2023-04-02T10:12:49.070Z,3.67
2023-04-02T10:15:22.884Z,3.00
2023-04-02T10:18:02.445Z,3.70
2023-04-02T10:20:34.025Z,2.38
2023-04-02T10:23:05.437Z,3.13
2023-04-02T10:25:42.216Z,3.10
2023-04-02T10:28:45.872Z,4.00
2023-04-02T10:31:57.942Z,2.40
2023-04-02T10:34:32.292Z,3.35
2023-04-02T10:37:09.926Z,2.50
2023-04-02T10:39:49.929Z,3.33
2023-04-02T10:42:33.611Z,1.77
2023-04-02T10:45:04.761Z,2.67
2023-04-02T10:48:04.770Z,4.18
2023-04-02T10:50:59.526Z,2.50
2023-04-02T10:53:37.751Z,2.67
2023-04-02T10:56:11.389Z,3.08
2023-04-02T10:59:18.339Z,2.70
2023-04-02T11:01:48.413Z,3.25
2023-04-02T11:04:37.643Z,3.03
2023-04-02T11:07:14.523Z,3.17
2023-04-02T11:12:20.320Z,2.65
2023-04-02T11:14:49.356Z,2.53
2023-04-02T11:17:19.575Z,3.33
2023-04-02T11:19:46.990Z,2.75
2023-04-02T11:22:16.369Z,2.22
2023-04-02T11:24:49.908Z,2.85
2023-04-02T11:27:26.079Z,2.03
2023-04-02T11:30:14.119Z,2.60
2023-04-02T11:32:45.253Z,3.08
2023-04-02T11:35:36.317Z,3.03
2023-04-02T11:38:12.148Z,3.00
2023-04-02T11:40:49.769Z,2.33
2023-04-02T11:43:35.785Z,2.60
2023-04-02T11:46:29.093Z,1.92
2023-04-02T11:49:38.189Z,2.75
2023-04-02T11:52:20.726Z,2.20
2023-04-02T11:55:00.580Z,3.03
2023-04-02T11:57:43.594Z,2.67
2023-04-02T12:00:35.594Z,2.83
2023-04-02T12:03:33.671Z,2.50
2023-04-02T12:06:13.314Z,2.67
2023-04-02T12:09:23.275Z,2.63
2023-04-02T12:11:52.729Z,2.30
2023-04-02T12:14:31.785Z,2.40
2023-04-02T12:16:59.833Z,2.03
2023-04-02T12:19:30.544Z,2.97
2023-04-02T12:21:59.327Z,2.25
2023-04-02T12:24:31.274Z,1.85
2023-04-02T12:27:22.665Z,2.55
2023-04-02T12:29:51.607Z,2.10
2023-04-02T12:32:29.084Z,2.70
2023-04-02T12:34:58.530Z,3.40
2023-04-02T12:37:27.810Z,2.85
2023-04-02T12:39:59.144Z,2.47
2023-04-02T12:42:35.137Z,3.97
2023-04-02T12:45:04.893Z,2.30
2023-04-02T12:47:32.858Z,2.00
2023-04-02T12:50:02.237Z,3.38
2023-04-02T12:52:30.661Z,2.95
2023-04-02T12:55:03.707Z,3.55
2023-04-02T12:57:34.258Z,2.55
2023-04-02T13:00:24.993Z,2.67
2023-04-02T13:03:08.667Z,2.20
2023-04-02T13:05:39.452Z,1.95
2023-04-02T13:08:07.031Z,2.53
2023-04-02T13:10:35.078Z,2.13
2023-04-02T13:13:03.851Z,2.45
2023-04-02T13:15:34.405Z,2.42
2023-04-02T13:18:03.818Z,2.22
2023-04-02T13:20:36.845Z,1.92
2023-04-02T13:23:29.670Z,1.95
2023-04-02T13:26:02.961Z,2.03
2023-04-02T13:28:30.373Z,2.95
2023-04-02T13:30:57.655Z,2.78
2023-04-02T13:33:25.003Z,2.53
2023-04-02T13:35:52.436Z,2.13
2023-04-02T13:38:19.871Z,2.40
2023-04-02T13:40:47.344Z,2.58
2023-04-02T13:43:19.499Z,2.10
2023-04-02T13:45:51.537Z,2.80
2023-04-02T13:48:19.372Z,2.22
2023-04-02T13:50:46.985Z,2.15
2023-04-02T13:53:33.199Z,1.63
2023-04-02T13:56:00.871Z,2.17
2023-04-02T13:58:28.156Z,1.85
2023-04-02T14:00:56.078Z,2.53
2023-04-02T14:03:23.594Z,2.38
2023-04-02T14:06:09.109Z,2.10
2023-04-02T14:09:00.648Z,2.60
2023-04-02T14:11:55.443Z,1.80
2023-04-02T14:14:29.423Z,2.67
2023-04-02T14:17:12.562Z,1.98
2023-04-02T14:20:09.528Z,2.92
2023-04-02T14:22:52.306Z,2.28
2023-04-02T14:25:47.395Z,2.03
2023-04-02T14:28:39.975Z,2.30
2023-04-02T14:31:31.690Z,2.65
2023-04-02T14:34:10.643Z,2.67
2023-04-02T14:36:46.066Z,2.17
2023-04-02T14:39:32.163Z,2.17
2023-04-02T14:42:10.212Z,2.50
2023-04-02T14:44:43.187Z,1.85
2023-04-02T14:47:23.289Z,1.83
2023-04-02T14:49:56.857Z,1.85
2023-04-02T14:52:27.090Z,2.83
2023-04-02T14:55:09.905Z,2.20
2023-04-02T14:57:41.490Z,2.15
2023-04-02T15:00:32.491Z,2.13
2023-04-02T15:03:21.480Z,1.95
2023-04-02T15:05:53.877Z,2.10
2023-04-02T15:08:58.573Z,2.22
2023-04-02T15:11:35.396Z,2.22
2023-04-02T15:14:20.227Z,2.70
2023-04-02T15:16:47.518Z,2.47
2023-04-02T15:19:19.043Z,1.65
2023-04-02T15:22:09.533Z,2.20
2023-04-02T15:24:55.205Z,1.98
2023-04-02T15:27:39.661Z,2.25
2023-04-02T15:30:18.929Z,1.85
2023-04-02T15:32:47.062Z,2.30
2023-04-02T15:35:52.412Z,2.38
2023-04-02T15:38:19.678Z,1.60
2023-04-02T15:40:53.499Z,2.08
2023-04-02T15:43:38.844Z,2.35
2023-04-02T15:46:12.202Z,2.30
2023-04-02T15:48:42.647Z,2.63
2023-04-02T15:51:45.349Z,1.90
2023-04-02T15:54:34.284Z,2.22
2023-04-02T15:57:32.298Z,1.52
2023-04-02T16:00:20.706Z,2.30
2023-04-02T16:03:17.218Z,1.95
2023-04-02T16:06:10.677Z,1.60
2023-04-02T16:09:02.215Z,2.42
2023-04-02T16:11:29.632Z,1.85
2023-04-02T16:14:30.622Z,2.50
2023-04-02T16:17:17.651Z,2.30
2023-04-02T16:19:56.731Z,1.60
2023-04-02T16:22:29.513Z,2.60
2023-04-02T16:25:19.453Z,2.55
2023-04-02T16:27:56.649Z,1.92
2023-04-02T16:33:37.771Z,2.70
2023-04-02T16:36:26.244Z,2.65
2023-04-02T16:39:20.674Z,1.92
2023-04-02T16:42:14.240Z,2.55
2023-04-02T16:44:55.884Z,3.13
2023-04-02T16:47:44.113Z,2.58
2023-04-02T16:50:29.842Z,2.10
2023-04-02T16:53:32.690Z,2.42
2023-04-02T16:56:23.312Z,2.63
2023-04-02T16:58:54.954Z,2.92
2023-04-02T17:01:38.459Z,2.08
2023-04-02T17:04:26.177Z,2.33
2023-04-02T17:07:22.889Z,2.15
2023-04-02T17:09:52.855Z,2.60
2023-04-02T17:12:33.177Z,2.72
2023-04-02T17:15:17.293Z,2.22
2023-04-02T17:17:58.326Z,3.00
2023-04-02T17:20:26.482Z,2.45
2023-04-02T17:22:55.536Z,2.72
2023-04-02T17:25:31.619Z,2.08
2023-04-02T17:27:58.956Z,2.00
2023-04-02T17:30:43.540Z,2.65
2023-04-02T17:33:16.070Z,3.35
2023-04-02T17:36:08.032Z,2.90
2023-04-02T17:38:41.346Z,3.55
2023-04-02T17:41:24.477Z,2.58
2023-04-02T17:44:16.976Z,4.05
2023-04-02T17:47:11.433Z,2.30
2023-04-02T17:49:56.969Z,2.15
2023-04-02T17:52:33.301Z,2.20
2023-04-02T17:55:25.782Z,2.38
2023-04-02T17:58:20.306Z,1.85
2023-04-02T18:01:12.549Z,2.75
2023-04-02T18:03:56.976Z,2.22
2023-04-02T18:06:36.627Z,2.35
2023-04-02T18:09:09.713Z,2.50
2023-04-02T18:11:55.732Z,2.88
2023-04-02T18:14:44.059Z,2.22
2023-04-02T18:17:39.604Z,2.42
2023-04-02T18:20:20.834Z,2.08
2023-04-02T18:23:01.113Z,2.85
2023-04-02T18:25:51.779Z,2.47
2023-04-02T18:28:33.851Z,2.65
2023-04-02T18:31:16.672Z,2.20
2023-04-02T18:34:08.867Z,2.10
2023-04-02T18:36:51.939Z,2.08
2023-04-02T18:39:40.369Z,2.97
2023-04-02T18:43:02.125Z,2.92
2023-04-02T18:45:32.551Z,2.78
2023-04-02T18:48:10.999Z,3.08
2023-04-02T18:50:40.706Z,3.05
2023-04-02T18:53:21.484Z,3.30
2023-04-02T18:55:53.710Z,2.97
2023-04-02T18:58:45.481Z,3.60
2023-04-02T19:01:18.399Z,3.03
2023-04-02T19:03:51.362Z,3.95
2023-04-02T19:06:37.703Z,4.35
2023-04-02T19:09:13.693Z,4.80
2023-04-02T19:11:40.985Z,3.85
2023-04-02T19:14:13.490Z,3.28
2023-04-02T19:16:58.877Z,4.45
2023-04-02T19:19:38.087Z,3.05
2023-04-02T19:22:29.640Z,3.83
2023-04-02T19:25:15.825Z,3.03
2023-04-02T19:27:53.190Z,4.95
2023-04-02T19:30:42.920Z,4.43
2023-04-02T19:33:28.979Z,4.32
2023-04-02T19:36:03.109Z,3.80
2023-04-02T19:38:51.860Z,4.63
2023-04-02T19:41:47.826Z,3.53
2023-04-02T19:44:16.408Z,3.20
2023-04-02T19:46:44.209Z,3.65
2023-04-02T19:49:22.769Z,6.60
2023-04-02T19:51:51.057Z,3.58
2023-04-02T19:54:18.807Z,6.32
2023-04-02T19:56:46.344Z,5.22
2023-04-02T20:01:43.950Z,5.45
2023-04-02T20:04:11.310Z,5.90
2023-04-02T20:06:38.736Z,4.57
2023-04-02T20:09:07.655Z,5.07
2023-04-02T20:11:37.167Z,4.38
2023-04-02T20:14:05.542Z,3.83
2023-04-02T20:16:34.431Z,4.13
2023-04-02T20:19:01.720Z,3.80
2023-04-02T20:21:34.607Z,5.63
2023-04-02T20:24:02.018Z,6.32
2023-04-02T20:26:30.050Z,6.18
2023-04-02T20:28:57.275Z,4.65
2023-04-02T20:31:24.709Z,3.83
2023-04-02T20:33:58.275Z,3.78
2023-04-02T20:36:25.870Z,4.32
2023-04-02T20:38:53.381Z,4.35
2023-04-02T20:41:22.013Z,3.42
2023-04-02T20:43:49.943Z,3.03
2023-04-02T20:46:17.591Z,3.08
2023-04-02T20:48:45.270Z,2.92
2023-04-02T20:51:14.685Z,3.10
2023-04-02T20:53:42.305Z,2.33
2023-04-02T20:56:15.688Z,2.90
2023-04-02T20:58:43.689Z,2.67
2023-04-02T21:01:18.713Z,2.45
2023-04-02T21:03:46.477Z,2.50
2023-04-02T21:06:19.706Z,2.30
2023-04-02T21:08:48.174Z,2.97
2023-04-02T21:11:16.669Z,3.53
2023-04-02T21:13:44.508Z,3.15
2023-04-02T21:16:21.833Z,2.47
2023-04-02T21:18:51.853Z,2.67
2023-04-02T21:21:20.589Z,2.92
2023-04-02T21:23:48.797Z,2.50
2023-04-02T21:26:17.944Z,2.78
2023-04-02T21:28:45.849Z,2.97
2023-04-02T21:31:13.410Z,2.75
2023-04-02T21:33:43.683Z,2.75
2023-04-02T21:36:14.240Z,2.35
2023-04-02T21:38:43.101Z,3.05
2023-04-02T21:41:16.100Z,2.80
2023-04-02T21:43:44.280Z,2.45
2023-04-02T21:46:12.404Z,2.50
2023-04-02T21:48:41.741Z,2.42
2023-04-02T21:51:15.374Z,2.75
2023-04-02T21:53:43.321Z,2.67
2023-04-02T21:56:21.115Z,2.70
2023-04-02T21:58:49.555Z,3.28
2023-04-02T22:01:26.636Z,2.30
2023-04-02T22:04:00.334Z,2.67
2023-04-02T22:06:30.402Z,1.95
2023-04-02T22:09:00.861Z,2.63
2023-04-02T22:11:35.666Z,1.52
2023-04-02T22:14:03.903Z,2.58
2023-04-02T22:16:32.968Z,1.88
2023-04-02T22:19:03.282Z,2.22
2023-04-02T22:21:32.250Z,2.28
2023-04-02T22:24:01.623Z,1.42
2023-04-02T22:26:30.389Z,3.08
2023-04-02T22:28:58.445Z,2.78
2023-04-02T22:31:27.607Z,2.63
2023-04-02T22:33:57.000Z,2.65
2023-04-02T22:36:25.810Z,1.98
2023-04-02T22:38:53.559Z,2.13
2023-04-02T22:41:25.790Z,1.80
2023-04-02T22:43:55.194Z,2.85
2023-04-02T22:46:23.142Z,4.90
2023-04-02T22:48:51.259Z,2.83
2023-04-02T22:51:20.770Z,2.38
2023-04-02T22:53:48.757Z,3.78
2023-04-02T22:56:19.265Z,2.15
2023-04-02T22:58:47.175Z,2.70
2023-04-02T23:01:19.045Z,2.35
2023-04-02T23:03:46.749Z,1.75
2023-04-02T23:06:16.492Z,2.08
2023-04-02T23:08:44.027Z,3.13
2023-04-02T23:11:21.911Z,2.35
2023-04-02T23:13:51.914Z,3.80
2023-04-02T23:16:20.488Z,2.50
2023-04-02T23:18:48.966Z,2.38
2023-04-02T23:21:17.440Z,2.05
2023-04-02T23:23:45.328Z,3.13
2023-04-02T23:26:21.756Z,2.42
2023-04-02T23:28:50.527Z,2.13
2023-04-02T23:31:20.429Z,2.10
2023-04-02T23:33:47.891Z,1.67
2023-04-02T23:36:20.960Z,2.30
2023-04-02T23:38:48.360Z,2.42
2023-04-02T23:41:16.580Z,2.88
2023-04-02T23:43:43.995Z,2.58
2023-04-02T23:46:11.615Z,2.03
2023-04-02T23:48:39.470Z,2.33
2023-04-02T23:51:07.073Z,2.05
2023-04-02T23:53:35.210Z,2.85
2023-04-02T23:56:02.484Z,2.40
2023-04-02T23:58:29.898Z,3.08
